sensor_id;sensor_type;location;lat;lon;timestamp;temperature;humidity
47857;DHT22;33618;49.972;8.242;2023-11-21T00:00:18;9.30;99.90
47857;DHT22;33618;49.972;8.242;2023-11-21T00:02:46;9.40;99.90
47857;DHT22;33618;49.972;8.242;2023-11-21T00:05:14;9.30;99.90
47857;DHT22;33618;49.972;8.242;2023-11-21T00:07:41;9.40;99.90
47857;DHT22;33618;49.972;8.242;2023-11-21T00:10:10;9.40;99.90
47857;DHT22;33618;49.972;8.242;2023-11-21T00:12:37;9.40;99.90
47857;DHT22;33618;49.972;8.242;2023-11-21T00:15:05;9.40;99.90
47857;DHT22;33618;49.972;8.242;2023-11-21T00:17:56;9.40;99.90
47857;DHT22;33618;49.972;8.242;2023-11-21T00:20:23;9.40;99.90
47857;DHT22;33618;49.972;8.242;2023-11-21T00:22:51;9.40;99.90
47857;DHT22;33618;49.972;8.242;2023-11-21T00:25:41;9.40;99.90
47857;DHT22;33618;49.972;8.242;2023-11-21T00:28:11;9.40;99.90
47857;DHT22;33618;49.972;8.242;2023-11-21T00:30:38;9.50;99.90
47857;DHT22;33618;49.972;8.242;2023-11-21T00:33:05;9.40;99.90
47857;DHT22;33618;49.972;8.242;2023-11-21T00:35:33;9.40;99.90
47857;DHT22;33618;49.972;8.242;2023-11-21T00:38:00;9.40;99.90
47857;DHT22;33618;49.972;8.242;2023-11-21T00:40:46;9.40;99.90
47857;DHT22;33618;49.972;8.242;2023-11-21T00:43:13;9.40;99.90
47857;DHT22;33618;49.972;8.242;2023-11-21T00:45:41;9.40;99.90
47857;DHT22;33618;49.972;8.242;2023-11-21T00:48:08;9.40;99.90
47857;DHT22;33618;49.972;8.242;2023-11-21T00:50:35;9.40;99.90
47857;DHT22;33618;49.972;8.242;2023-11-21T00:53:02;9.40;99.90
47857;DHT22;33618;49.972;8.242;2023-11-21T00:55:29;9.40;99.90
47857;DHT22;33618;49.972;8.242;2023-11-21T00:57:57;9.40;99.90
47857;DHT22;33618;49.972;8.242;2023-11-21T01:00:26;9.30;99.90
47857;DHT22;33618;49.972;8.242;2023-11-21T01:02:54;9.30;99.90
47857;DHT22;33618;49.972;8.242;2023-11-21T01:05:22;9.30;99.90
47857;DHT22;33618;49.972;8.242;2023-11-21T01:07:49;9.30;99.90
47857;DHT22;33618;49.972;8.242;2023-11-21T01:10:17;9.40;99.90
47857;DHT22;33618;49.972;8.242;2023-11-21T01:12:44;9.40;99.90
47857;DHT22;33618;49.972;8.242;2023-11-21T01:15:11;9.40;99.90
47857;DHT22;33618;49.972;8.242;2023-11-21T01:17:42;9.40;99.90
47857;DHT22;33618;49.972;8.242;2023-11-21T01:20:09;9.40;99.90
47857;DHT22;33618;49.972;8.242;2023-11-21T01:22:41;9.40;99.90
47857;DHT22;33618;49.972;8.242;2023-11-21T01:25:08;9.40;99.90
47857;DHT22;33618;49.972;8.242;2023-11-21T01:27:37;9.40;99.90
47857;DHT22;33618;49.972;8.242;2023-11-21T01:30:06;9.40;99.90
47857;DHT22;33618;49.972;8.242;2023-11-21T01:32:34;9.50;99.90
47857;DHT22;33618;49.972;8.242;2023-11-21T01:35:03;9.50;99.90
47857;DHT22;33618;49.972;8.242;2023-11-21T01:37:33;9.50;99.90
47857;DHT22;33618;49.972;8.242;2023-11-21T01:40:00;9.40;99.90
47857;DHT22;33618;49.972;8.242;2023-11-21T01:42:28;9.50;99.90
47857;DHT22;33618;49.972;8.242;2023-11-21T01:44:56;9.50;99.90
47857;DHT22;33618;49.972;8.242;2023-11-21T01:47:24;9.50;99.90
47857;DHT22;33618;49.972;8.242;2023-11-21T01:49:51;9.40;99.90
47857;DHT22;33618;49.972;8.242;2023-11-21T01:52:18;9.50;99.90
47857;DHT22;33618;49.972;8.242;2023-11-21T01:54:46;9.50;99.90
47857;DHT22;33618;49.972;8.242;2023-11-21T01:57:15;9.50;99.90
47857;DHT22;33618;49.972;8.242;2023-11-21T01:59:42;9.40;99.90
47857;DHT22;33618;49.972;8.242;2023-11-21T02:02:10;9.40;99.90
47857;DHT22;33618;49.972;8.242;2023-11-21T02:04:37;9.40;99.90
47857;DHT22;33618;49.972;8.242;2023-11-21T02:07:05;9.50;99.90
47857;DHT22;33618;49.972;8.242;2023-11-21T02:09:35;9.40;99.90
47857;DHT22;33618;49.972;8.242;2023-11-21T02:12:05;9.50;99.90
47857;DHT22;33618;49.972;8.242;2023-11-21T02:14:32;9.50;99.90
47857;DHT22;33618;49.972;8.242;2023-11-21T02:17:04;9.50;99.90
47857;DHT22;33618;49.972;8.242;2023-11-21T02:19:32;9.50;99.90
47857;DHT22;33618;49.972;8.242;2023-11-21T02:21:59;9.50;99.90
47857;DHT22;33618;49.972;8.242;2023-11-21T02:24:30;9.50;99.90
47857;DHT22;33618;49.972;8.242;2023-11-21T02:26:58;9.50;99.90
47857;DHT22;33618;49.972;8.242;2023-11-21T02:29:25;9.50;99.90
47857;DHT22;33618;49.972;8.242;2023-11-21T02:31:55;9.50;99.90
47857;DHT22;33618;49.972;8.242;2023-11-21T02:34:23;9.50;99.90
47857;DHT22;33618;49.972;8.242;2023-11-21T02:36:52;9.50;99.90
47857;DHT22;33618;49.972;8.242;2023-11-21T02:39:21;9.50;99.90
47857;DHT22;33618;49.972;8.242;2023-11-21T02:41:51;9.50;99.90
47857;DHT22;33618;49.972;8.242;2023-11-21T02:44:18;9.50;99.90
47857;DHT22;33618;49.972;8.242;2023-11-21T02:46:46;9.40;99.90
47857;DHT22;33618;49.972;8.242;2023-11-21T02:49:14;9.40;99.90
47857;DHT22;33618;49.972;8.242;2023-11-21T02:51:41;9.40;99.90
47857;DHT22;33618;49.972;8.242;2023-11-21T02:54:08;9.40;99.90
47857;DHT22;33618;49.972;8.242;2023-11-21T02:56:35;9.40;99.90
47857;DHT22;33618;49.972;8.242;2023-11-21T02:59:02;9.40;99.90
47857;DHT22;33618;49.972;8.242;2023-11-21T03:01:29;9.40;99.90
47857;DHT22;33618;49.972;8.242;2023-11-21T03:03:57;9.30;99.90
47857;DHT22;33618;49.972;8.242;2023-11-21T03:06:24;9.40;99.90
47857;DHT22;33618;49.972;8.242;2023-11-21T03:08:51;9.40;99.90
47857;DHT22;33618;49.972;8.242;2023-11-21T03:11:18;9.30;99.90
47857;DHT22;33618;49.972;8.242;2023-11-21T03:13:45;9.40;99.90
47857;DHT22;33618;49.972;8.242;2023-11-21T03:16:12;9.40;99.90
47857;DHT22;33618;49.972;8.242;2023-11-21T03:18:40;9.30;99.90
47857;DHT22;33618;49.972;8.242;2023-11-21T03:21:07;9.30;99.90
47857;DHT22;33618;49.972;8.242;2023-11-21T03:23:37;9.30;99.90
47857;DHT22;33618;49.972;8.242;2023-11-21T03:26:05;9.30;99.90
47857;DHT22;33618;49.972;8.242;2023-11-21T03:28:35;9.20;99.90
47857;DHT22;33618;49.972;8.242;2023-11-21T03:31:02;9.20;99.90
47857;DHT22;33618;49.972;8.242;2023-11-21T03:33:29;9.10;99.90
47857;DHT22;33618;49.972;8.242;2023-11-21T03:35:56;9.10;99.90
47857;DHT22;33618;49.972;8.242;2023-11-21T03:38:23;9.00;99.90
47857;DHT22;33618;49.972;8.242;2023-11-21T03:40:50;9.00;99.90
47857;DHT22;33618;49.972;8.242;2023-11-21T03:43:17;9.00;99.90
47857;DHT22;33618;49.972;8.242;2023-11-21T03:45:45;8.90;99.90
47857;DHT22;33618;49.972;8.242;2023-11-21T03:48:13;8.80;99.90
47857;DHT22;33618;49.972;8.242;2023-11-21T03:50:40;8.70;99.90
47857;DHT22;33618;49.972;8.242;2023-11-21T03:53:06;8.70;99.90
47857;DHT22;33618;49.972;8.242;2023-11-21T03:55:33;8.60;99.90
47857;DHT22;33618;49.972;8.242;2023-11-21T03:58:01;8.60;99.90
47857;DHT22;33618;49.972;8.242;2023-11-21T04:00:28;8.60;99.90
47857;DHT22;33618;49.972;8.242;2023-11-21T04:02:55;8.60;99.90
47857;DHT22;33618;49.972;8.242;2023-11-21T04:05:23;8.60;99.90
47857;DHT22;33618;49.972;8.242;2023-11-21T04:07:51;8.70;99.90
47857;DHT22;33618;49.972;8.242;2023-11-21T04:10:19;8.70;99.90
47857;DHT22;33618;49.972;8.242;2023-11-21T04:12:46;8.70;99.90
47857;DHT22;33618;49.972;8.242;2023-11-21T04:15:14;8.70;99.90
47857;DHT22;33618;49.972;8.242;2023-11-21T04:17:42;8.70;99.90
47857;DHT22;33618;49.972;8.242;2023-11-21T04:20:09;8.80;99.90
47857;DHT22;33618;49.972;8.242;2023-11-21T04:22:41;8.80;99.90
47857;DHT22;33618;49.972;8.242;2023-11-21T04:25:09;8.80;99.90
47857;DHT22;33618;49.972;8.242;2023-11-21T04:27:40;8.90;99.90
47857;DHT22;33618;49.972;8.242;2023-11-21T04:30:08;8.90;99.90
47857;DHT22;33618;49.972;8.242;2023-11-21T04:32:36;8.90;99.90
47857;DHT22;33618;49.972;8.242;2023-11-21T04:35:04;8.90;99.90
47857;DHT22;33618;49.972;8.242;2023-11-21T04:37:31;8.90;99.90
47857;DHT22;33618;49.972;8.242;2023-11-21T04:39:58;9.00;99.90
47857;DHT22;33618;49.972;8.242;2023-11-21T04:42:26;9.00;99.90
47857;DHT22;33618;49.972;8.242;2023-11-21T04:44:52;9.00;99.90
47857;DHT22;33618;49.972;8.242;2023-11-21T04:47:20;9.10;99.90
47857;DHT22;33618;49.972;8.242;2023-11-21T04:49:50;9.10;99.90
47857;DHT22;33618;49.972;8.242;2023-11-21T04:52:16;9.10;99.90
47857;DHT22;33618;49.972;8.242;2023-11-21T04:54:43;9.00;99.90
47857;DHT22;33618;49.972;8.242;2023-11-21T04:57:11;9.10;99.90
47857;DHT22;33618;49.972;8.242;2023-11-21T04:59:38;9.10;99.90
47857;DHT22;33618;49.972;8.242;2023-11-21T05:02:06;9.10;99.90
47857;DHT22;33618;49.972;8.242;2023-11-21T05:04:33;9.10;99.90
47857;DHT22;33618;49.972;8.242;2023-11-21T05:07:00;9.10;99.90
47857;DHT22;33618;49.972;8.242;2023-11-21T05:09:28;9.00;99.90
47857;DHT22;33618;49.972;8.242;2023-11-21T05:11:58;9.10;99.90
47857;DHT22;33618;49.972;8.242;2023-11-21T05:14:26;9.10;99.90
47857;DHT22;33618;49.972;8.242;2023-11-21T05:16:54;9.10;99.90
47857;DHT22;33618;49.972;8.242;2023-11-21T05:19:21;9.10;99.90
47857;DHT22;33618;49.972;8.242;2023-11-21T05:21:50;9.10;99.90
47857;DHT22;33618;49.972;8.242;2023-11-21T05:24:17;9.10;99.90
47857;DHT22;33618;49.972;8.242;2023-11-21T05:26:45;9.10;99.90
47857;DHT22;33618;49.972;8.242;2023-11-21T05:29:19;9.10;99.90
47857;DHT22;33618;49.972;8.242;2023-11-21T05:31:46;9.10;99.90
47857;DHT22;33618;49.972;8.242;2023-11-21T05:34:13;9.10;99.90
47857;DHT22;33618;49.972;8.242;2023-11-21T05:36:44;9.10;99.90
47857;DHT22;33618;49.972;8.242;2023-11-21T05:39:13;9.10;99.90
47857;DHT22;33618;49.972;8.242;2023-11-21T05:41:44;9.10;99.90
47857;DHT22;33618;49.972;8.242;2023-11-21T05:44:14;9.10;99.90
47857;DHT22;33618;49.972;8.242;2023-11-21T05:46:41;9.10;99.90
47857;DHT22;33618;49.972;8.242;2023-11-21T05:49:10;9.10;99.90
47857;DHT22;33618;49.972;8.242;2023-11-21T05:51:42;9.10;99.90
47857;DHT22;33618;49.972;8.242;2023-11-21T05:54:09;9.10;99.90
47857;DHT22;33618;49.972;8.242;2023-11-21T05:56:37;9.00;99.90
47857;DHT22;33618;49.972;8.242;2023-11-21T05:59:07;9.00;99.90
47857;DHT22;33618;49.972;8.242;2023-11-21T06:01:34;9.00;99.90
47857;DHT22;33618;49.972;8.242;2023-11-21T06:04:01;9.00;99.90
47857;DHT22;33618;49.972;8.242;2023-11-21T06:06:29;9.00;99.90
47857;DHT22;33618;49.972;8.242;2023-11-21T06:08:58;9.00;99.90
47857;DHT22;33618;49.972;8.242;2023-11-21T06:11:26;9.00;99.90
47857;DHT22;33618;49.972;8.242;2023-11-21T06:13:56;9.00;99.90
47857;DHT22;33618;49.972;8.242;2023-11-21T06:16:23;9.00;99.90
47857;DHT22;33618;49.972;8.242;2023-11-21T06:18:51;9.00;99.90
47857;DHT22;33618;49.972;8.242;2023-11-21T06:21:18;9.00;99.90
47857;DHT22;33618;49.972;8.242;2023-11-21T06:23:45;8.90;99.90
47857;DHT22;33618;49.972;8.242;2023-11-21T06:26:12;9.00;99.90
47857;DHT22;33618;49.972;8.242;2023-11-21T06:28:40;9.00;99.90
47857;DHT22;33618;49.972;8.242;2023-11-21T06:31:08;9.00;99.90
47857;DHT22;33618;49.972;8.242;2023-11-21T06:33:35;9.00;99.90
47857;DHT22;33618;49.972;8.242;2023-11-21T06:36:02;8.90;99.90
47857;DHT22;33618;49.972;8.242;2023-11-21T06:38:33;9.00;99.90
47857;DHT22;33618;49.972;8.242;2023-11-21T06:41:00;9.00;99.90
47857;DHT22;33618;49.972;8.242;2023-11-21T06:43:31;8.90;99.90
47857;DHT22;33618;49.972;8.242;2023-11-21T06:45:58;9.00;99.90
47857;DHT22;33618;49.972;8.242;2023-11-21T06:48:26;9.00;99.90
47857;DHT22;33618;49.972;8.242;2023-11-21T06:50:53;9.00;99.90
47857;DHT22;33618;49.972;8.242;2023-11-21T06:53:20;9.00;99.90
47857;DHT22;33618;49.972;8.242;2023-11-21T06:55:47;9.00;99.90
47857;DHT22;33618;49.972;8.242;2023-11-21T06:58:14;9.00;99.90
47857;DHT22;33618;49.972;8.242;2023-11-21T07:00:42;9.00;99.90
47857;DHT22;33618;49.972;8.242;2023-11-21T07:03:14;9.10;99.90
47857;DHT22;33618;49.972;8.242;2023-11-21T07:05:41;9.10;99.90
47857;DHT22;33618;49.972;8.242;2023-11-21T07:08:08;9.10;99.90
47857;DHT22;33618;49.972;8.242;2023-11-21T07:10:35;9.20;99.90
47857;DHT22;33618;49.972;8.242;2023-11-21T07:13:03;9.10;99.90
47857;DHT22;33618;49.972;8.242;2023-11-21T07:15:31;9.20;99.90
47857;DHT22;33618;49.972;8.242;2023-11-21T07:17:58;9.20;99.90
47857;DHT22;33618;49.972;8.242;2023-11-21T07:20:25;9.20;99.90
47857;DHT22;33618;49.972;8.242;2023-11-21T07:22:52;9.20;99.90
47857;DHT22;33618;49.972;8.242;2023-11-21T07:25:19;9.30;99.90
47857;DHT22;33618;49.972;8.242;2023-11-21T07:27:46;9.30;99.90
47857;DHT22;33618;49.972;8.242;2023-11-21T07:30:17;9.30;99.90
47857;DHT22;33618;49.972;8.242;2023-11-21T07:32:44;9.40;99.90
47857;DHT22;33618;49.972;8.242;2023-11-21T07:35:12;9.40;99.90
47857;DHT22;33618;49.972;8.242;2023-11-21T07:37:39;9.40;99.90
47857;DHT22;33618;49.972;8.242;2023-11-21T07:40:07;9.50;99.90
47857;DHT22;33618;49.972;8.242;2023-11-21T07:42:36;9.50;99.90
47857;DHT22;33618;49.972;8.242;2023-11-21T07:45:04;9.50;99.90
47857;DHT22;33618;49.972;8.242;2023-11-21T07:47:31;9.50;99.90
47857;DHT22;33618;49.972;8.242;2023-11-21T07:50:04;9.50;99.90
47857;DHT22;33618;49.972;8.242;2023-11-21T07:52:32;9.50;99.90
47857;DHT22;33618;49.972;8.242;2023-11-21T07:54:59;9.50;99.90
47857;DHT22;33618;49.972;8.242;2023-11-21T07:57:26;9.50;99.90
47857;DHT22;33618;49.972;8.242;2023-11-21T07:59:53;9.50;99.90
47857;DHT22;33618;49.972;8.242;2023-11-21T08:02:22;9.60;99.90
47857;DHT22;33618;49.972;8.242;2023-11-21T08:04:49;9.60;99.90
47857;DHT22;33618;49.972;8.242;2023-11-21T08:07:17;9.60;99.90
47857;DHT22;33618;49.972;8.242;2023-11-21T08:09:45;9.60;99.90
47857;DHT22;33618;49.972;8.242;2023-11-21T08:12:13;9.70;99.90
47857;DHT22;33618;49.972;8.242;2023-11-21T08:14:41;9.70;99.90
47857;DHT22;33618;49.972;8.242;2023-11-21T08:17:09;9.70;99.90
47857;DHT22;33618;49.972;8.242;2023-11-21T08:19:37;9.80;99.90
47857;DHT22;33618;49.972;8.242;2023-11-21T08:22:04;9.80;99.90
47857;DHT22;33618;49.972;8.242;2023-11-21T08:24:31;9.80;99.90
47857;DHT22;33618;49.972;8.242;2023-11-21T08:26:59;9.80;99.90
47857;DHT22;33618;49.972;8.242;2023-11-21T08:29:26;9.80;99.90
47857;DHT22;33618;49.972;8.242;2023-11-21T08:31:53;9.90;99.90
47857;DHT22;33618;49.972;8.242;2023-11-21T08:34:21;10.00;99.90
47857;DHT22;33618;49.972;8.242;2023-11-21T08:36:48;10.00;99.90
47857;DHT22;33618;49.972;8.242;2023-11-21T08:39:15;10.00;99.90
47857;DHT22;33618;49.972;8.242;2023-11-21T08:41:46;10.00;99.90
47857;DHT22;33618;49.972;8.242;2023-11-21T08:44:13;10.00;99.90
47857;DHT22;33618;49.972;8.242;2023-11-21T08:46:41;10.00;99.90
47857;DHT22;33618;49.972;8.242;2023-11-21T08:49:09;10.00;99.90
47857;DHT22;33618;49.972;8.242;2023-11-21T08:51:36;10.00;99.90
47857;DHT22;33618;49.972;8.242;2023-11-21T08:54:04;10.00;99.90
47857;DHT22;33618;49.972;8.242;2023-11-21T08:56:34;10.00;99.90
47857;DHT22;33618;49.972;8.242;2023-11-21T08:59:03;10.00;99.90
47857;DHT22;33618;49.972;8.242;2023-11-21T09:01:31;10.00;99.90
47857;DHT22;33618;49.972;8.242;2023-11-21T09:03:59;10.00;99.90
47857;DHT22;33618;49.972;8.242;2023-11-21T09:06:26;10.00;99.90
47857;DHT22;33618;49.972;8.242;2023-11-21T09:08:54;10.00;99.90
47857;DHT22;33618;49.972;8.242;2023-11-21T09:11:21;10.00;99.90
47857;DHT22;33618;49.972;8.242;2023-11-21T09:13:48;10.00;99.90
47857;DHT22;33618;49.972;8.242;2023-11-21T09:16:15;10.10;99.90
47857;DHT22;33618;49.972;8.242;2023-11-21T09:18:43;10.10;99.90
47857;DHT22;33618;49.972;8.242;2023-11-21T09:21:10;10.10;99.90
47857;DHT22;33618;49.972;8.242;2023-11-21T09:23:37;10.20;99.90
47857;DHT22;33618;49.972;8.242;2023-11-21T09:26:05;10.20;99.90
47857;DHT22;33618;49.972;8.242;2023-11-21T09:28:33;10.30;99.90
47857;DHT22;33618;49.972;8.242;2023-11-21T09:31:00;10.30;99.90
47857;DHT22;33618;49.972;8.242;2023-11-21T09:33:30;10.40;99.90
47857;DHT22;33618;49.972;8.242;2023-11-21T09:35:57;10.50;99.90
47857;DHT22;33618;49.972;8.242;2023-11-21T09:38:25;10.50;99.90
47857;DHT22;33618;49.972;8.242;2023-11-21T09:40:52;10.50;99.90
47857;DHT22;33618;49.972;8.242;2023-11-21T09:43:21;10.60;99.90
47857;DHT22;33618;49.972;8.242;2023-11-21T09:46:00;10.60;99.90
47857;DHT22;33618;49.972;8.242;2023-11-21T09:48:35;10.70;99.90
47857;DHT22;33618;49.972;8.242;2023-11-21T09:51:03;10.70;99.90
47857;DHT22;33618;49.972;8.242;2023-11-21T09:53:32;10.70;99.90
47857;DHT22;33618;49.972;8.242;2023-11-21T09:56:01;10.80;99.90
47857;DHT22;33618;49.972;8.242;2023-11-21T09:58:29;10.80;99.90
47857;DHT22;33618;49.972;8.242;2023-11-21T10:00:58;10.80;99.90
47857;DHT22;33618;49.972;8.242;2023-11-21T10:03:26;10.80;99.90
47857;DHT22;33618;49.972;8.242;2023-11-21T10:05:53;10.90;99.90
47857;DHT22;33618;49.972;8.242;2023-11-21T10:08:27;10.90;99.90
47857;DHT22;33618;49.972;8.242;2023-11-21T10:11:12;11.00;99.90
47857;DHT22;33618;49.972;8.242;2023-11-21T10:13:41;11.00;99.90
47857;DHT22;33618;49.972;8.242;2023-11-21T10:16:11;11.00;99.90
47857;DHT22;33618;49.972;8.242;2023-11-21T10:18:41;11.00;99.90
47857;DHT22;33618;49.972;8.242;2023-11-21T10:21:09;11.20;99.90
47857;DHT22;33618;49.972;8.242;2023-11-21T10:23:36;11.30;99.90
47857;DHT22;33618;49.972;8.242;2023-11-21T10:26:06;11.40;99.90
47857;DHT22;33618;49.972;8.242;2023-11-21T10:28:58;11.50;99.90
47857;DHT22;33618;49.972;8.242;2023-11-21T10:31:29;11.50;99.90
47857;DHT22;33618;49.972;8.242;2023-11-21T10:36:40;11.70;99.90
47857;DHT22;33618;49.972;8.242;2023-11-21T10:39:07;11.90;99.90
47857;DHT22;33618;49.972;8.242;2023-11-21T10:41:34;12.20;99.90
47857;DHT22;33618;49.972;8.242;2023-11-21T10:44:02;12.60;99.90
47857;DHT22;33618;49.972;8.242;2023-11-21T10:46:38;12.90;98.80
47857;DHT22;33618;49.972;8.242;2023-11-21T10:49:07;13.10;98.30
47857;DHT22;33618;49.972;8.242;2023-11-21T10:51:33;13.20;97.70
47857;DHT22;33618;49.972;8.242;2023-11-21T10:54:00;13.50;97.20
47857;DHT22;33618;49.972;8.242;2023-11-21T10:56:28;14.00;96.60
47857;DHT22;33618;49.972;8.242;2023-11-21T10:58:57;14.40;96.20
47857;DHT22;33618;49.972;8.242;2023-11-21T11:01:26;14.80;95.70
47857;DHT22;33618;49.972;8.242;2023-11-21T11:03:56;15.20;94.50
47857;DHT22;33618;49.972;8.242;2023-11-21T11:06:26;15.50;94.00
47857;DHT22;33618;49.972;8.242;2023-11-21T11:08:55;15.70;93.30
47857;DHT22;33618;49.972;8.242;2023-11-21T11:11:23;15.80;93.30
47857;DHT22;33618;49.972;8.242;2023-11-21T11:13:51;15.80;93.00
47857;DHT22;33618;49.972;8.242;2023-11-21T11:16:20;16.10;92.60
47857;DHT22;33618;49.972;8.242;2023-11-21T11:18:47;16.10;92.70
47857;DHT22;33618;49.972;8.242;2023-11-21T11:27:21;16.50;91.40
47857;DHT22;33618;49.972;8.242;2023-11-21T11:35:53;16.30;91.40
47857;DHT22;33618;49.972;8.242;2023-11-21T11:38:23;16.30;91.00
47857;DHT22;33618;49.972;8.242;2023-11-21T11:40:52;16.30;91.70
47857;DHT22;33618;49.972;8.242;2023-11-21T11:43:26;16.20;91.30
47857;DHT22;33618;49.972;8.242;2023-11-21T11:45:57;16.10;91.40
47857;DHT22;33618;49.972;8.242;2023-11-21T11:48:30;16.00;91.80
47857;DHT22;33618;49.972;8.242;2023-11-21T11:51:07;15.80;91.50
47857;DHT22;33618;49.972;8.242;2023-11-21T11:53:38;15.40;91.60
47857;DHT22;33618;49.972;8.242;2023-11-21T11:56:22;15.30;91.90
47857;DHT22;33618;49.972;8.242;2023-11-21T11:58:51;15.00;91.30
47857;DHT22;33618;49.972;8.242;2023-11-21T12:01:19;14.90;92.70
47857;DHT22;33618;49.972;8.242;2023-11-21T12:06:44;14.80;92.30
47857;DHT22;33618;49.972;8.242;2023-11-21T12:09:17;14.80;92.20
47857;DHT22;33618;49.972;8.242;2023-11-21T12:11:46;14.80;92.10
47857;DHT22;33618;49.972;8.242;2023-11-21T12:14:14;14.70;91.90
47857;DHT22;33618;49.972;8.242;2023-11-21T12:16:42;14.60;92.50
47857;DHT22;33618;49.972;8.242;2023-11-21T12:19:11;14.50;92.20
47857;DHT22;33618;49.972;8.242;2023-11-21T12:21:38;14.30;92.50
47857;DHT22;33618;49.972;8.242;2023-11-21T12:24:08;13.90;93.00
47857;DHT22;33618;49.972;8.242;2023-11-21T12:26:42;13.70;93.00
47857;DHT22;33618;49.972;8.242;2023-11-21T12:29:11;13.40;93.60
47857;DHT22;33618;49.972;8.242;2023-11-21T12:31:38;13.20;93.70
47857;DHT22;33618;49.972;8.242;2023-11-21T12:34:05;13.00;93.80
47857;DHT22;33618;49.972;8.242;2023-11-21T12:36:34;12.80;93.80
47857;DHT22;33618;49.972;8.242;2023-11-21T12:39:02;12.60;93.80
47857;DHT22;33618;49.972;8.242;2023-11-21T12:41:29;12.40;93.70
47857;DHT22;33618;49.972;8.242;2023-11-21T12:43:57;12.30;93.70
47857;DHT22;33618;49.972;8.242;2023-11-21T12:46:25;12.10;93.90
47857;DHT22;33618;49.972;8.242;2023-11-21T12:48:56;12.00;94.30
47857;DHT22;33618;49.972;8.242;2023-11-21T12:51:24;11.90;93.90
47857;DHT22;33618;49.972;8.242;2023-11-21T12:53:52;11.80;94.20
47857;DHT22;33618;49.972;8.242;2023-11-21T12:56:21;11.80;94.30
47857;DHT22;33618;49.972;8.242;2023-11-21T12:58:50;11.80;94.70
47857;DHT22;33618;49.972;8.242;2023-11-21T13:01:20;11.80;94.20
47857;DHT22;33618;49.972;8.242;2023-11-21T13:03:54;11.90;94.10
47857;DHT22;33618;49.972;8.242;2023-11-21T13:06:21;11.90;94.30
47857;DHT22;33618;49.972;8.242;2023-11-21T13:08:52;11.90;94.20
47857;DHT22;33618;49.972;8.242;2023-11-21T13:11:19;12.00;94.30
47857;DHT22;33618;49.972;8.242;2023-11-21T13:13:46;12.10;93.90
47857;DHT22;33618;49.972;8.242;2023-11-21T13:16:13;12.00;94.20
47857;DHT22;33618;49.972;8.242;2023-11-21T13:18:42;12.10;93.90
47857;DHT22;33618;49.972;8.242;2023-11-21T13:21:09;12.10;94.00
47857;DHT22;33618;49.972;8.242;2023-11-21T13:23:41;12.00;94.10
47857;DHT22;33618;49.972;8.242;2023-11-21T13:26:09;12.00;94.20
47857;DHT22;33618;49.972;8.242;2023-11-21T13:28:36;12.00;94.40
47857;DHT22;33618;49.972;8.242;2023-11-21T13:31:05;12.10;94.10
47857;DHT22;33618;49.972;8.242;2023-11-21T13:33:38;12.10;93.80
47857;DHT22;33618;49.972;8.242;2023-11-21T13:36:06;11.90;93.70
47857;DHT22;33618;49.972;8.242;2023-11-21T13:38:36;11.90;93.80
47857;DHT22;33618;49.972;8.242;2023-11-21T13:41:04;11.90;94.10
47857;DHT22;33618;49.972;8.242;2023-11-21T13:43:34;11.90;94.30
47857;DHT22;33618;49.972;8.242;2023-11-21T13:46:03;11.90;94.20
47857;DHT22;33618;49.972;8.242;2023-11-21T13:48:40;11.80;94.20
47857;DHT22;33618;49.972;8.242;2023-11-21T13:51:09;11.80;94.30
47857;DHT22;33618;49.972;8.242;2023-11-21T13:53:59;11.90;94.10
47857;DHT22;33618;49.972;8.242;2023-11-21T13:56:27;12.00;94.30
47857;DHT22;33618;49.972;8.242;2023-11-21T13:58:56;12.00;94.20
47857;DHT22;33618;49.972;8.242;2023-11-21T14:01:26;12.00;94.20
47857;DHT22;33618;49.972;8.242;2023-11-21T14:04:14;12.10;94.10
47857;DHT22;33618;49.972;8.242;2023-11-21T14:06:43;12.10;94.10
47857;DHT22;33618;49.972;8.242;2023-11-21T14:09:19;12.20;94.00
47857;DHT22;33618;49.972;8.242;2023-11-21T14:11:54;12.20;93.70
47857;DHT22;33618;49.972;8.242;2023-11-21T14:14:25;12.30;93.90
47857;DHT22;33618;49.972;8.242;2023-11-21T14:16:52;12.40;93.80
47857;DHT22;33618;49.972;8.242;2023-11-21T14:19:19;12.40;93.90
47857;DHT22;33618;49.972;8.242;2023-11-21T14:21:48;12.40;93.70
47857;DHT22;33618;49.972;8.242;2023-11-21T14:24:17;12.40;93.70
47857;DHT22;33618;49.972;8.242;2023-11-21T14:26:48;12.40;93.70
47857;DHT22;33618;49.972;8.242;2023-11-21T14:29:16;12.60;93.50
47857;DHT22;33618;49.972;8.242;2023-11-21T14:31:47;12.60;93.60
47857;DHT22;33618;49.972;8.242;2023-11-21T14:34:15;12.50;93.50
47857;DHT22;33618;49.972;8.242;2023-11-21T14:36:47;12.50;93.80
47857;DHT22;33618;49.972;8.242;2023-11-21T14:39:16;12.30;93.70
47857;DHT22;33618;49.972;8.242;2023-11-21T14:42:03;12.20;94.10
47857;DHT22;33618;49.972;8.242;2023-11-21T14:44:31;12.10;94.30
47857;DHT22;33618;49.972;8.242;2023-11-21T14:47:02;11.90;94.60
47857;DHT22;33618;49.972;8.242;2023-11-21T14:49:34;11.80;94.70
47857;DHT22;33618;49.972;8.242;2023-11-21T14:52:17;11.60;95.40
47857;DHT22;33618;49.972;8.242;2023-11-21T14:55:00;11.60;95.50
47857;DHT22;33618;49.972;8.242;2023-11-21T14:57:47;11.50;95.60
47857;DHT22;33618;49.972;8.242;2023-11-21T15:00:19;11.40;95.70
47857;DHT22;33618;49.972;8.242;2023-11-21T15:03:18;11.40;95.60
47857;DHT22;33618;49.972;8.242;2023-11-21T15:06:11;11.20;95.60
47857;DHT22;33618;49.972;8.242;2023-11-21T15:08:57;11.20;95.80
47857;DHT22;33618;49.972;8.242;2023-11-21T15:11:34;11.10;95.80
47857;DHT22;33618;49.972;8.242;2023-11-21T15:14:01;11.10;95.90
47857;DHT22;33618;49.972;8.242;2023-11-21T15:16:34;11.00;96.00
47857;DHT22;33618;49.972;8.242;2023-11-21T15:19:07;11.00;96.20
47857;DHT22;33618;49.972;8.242;2023-11-21T15:21:36;10.90;96.60
47857;DHT22;33618;49.972;8.242;2023-11-21T15:24:03;10.90;96.60
47857;DHT22;33618;49.972;8.242;2023-11-21T15:26:30;10.90;96.50
47857;DHT22;33618;49.972;8.242;2023-11-21T15:28:57;10.90;96.70
47857;DHT22;33618;49.972;8.242;2023-11-21T15:31:24;10.90;96.80
47857;DHT22;33618;49.972;8.242;2023-11-21T15:33:52;10.90;96.90
47857;DHT22;33618;49.972;8.242;2023-11-21T15:36:20;10.90;96.60
47857;DHT22;33618;49.972;8.242;2023-11-21T15:38:47;10.90;96.80
47857;DHT22;33618;49.972;8.242;2023-11-21T15:41:14;10.80;96.80
47857;DHT22;33618;49.972;8.242;2023-11-21T15:43:41;10.80;96.80
47857;DHT22;33618;49.972;8.242;2023-11-21T15:46:08;10.80;96.80
47857;DHT22;33618;49.972;8.242;2023-11-21T15:48:36;10.80;96.90
47857;DHT22;33618;49.972;8.242;2023-11-21T15:51:06;10.70;97.00
47857;DHT22;33618;49.972;8.242;2023-11-21T15:53:37;10.70;97.00
47857;DHT22;33618;49.972;8.242;2023-11-21T15:56:04;10.60;97.30
47857;DHT22;33618;49.972;8.242;2023-11-21T15:58:31;10.60;97.40
47857;DHT22;33618;49.972;8.242;2023-11-21T16:00:58;10.60;97.60
47857;DHT22;33618;49.972;8.242;2023-11-21T16:03:25;10.60;97.70
47857;DHT22;33618;49.972;8.242;2023-11-21T16:05:52;10.60;97.80
47857;DHT22;33618;49.972;8.242;2023-11-21T16:08:19;10.60;97.80